Time;durP1;ratioP1;P1;durP2;ratioP2;P2;SDS_P1;SDS_P2;PMS_P1;PMS_P2;Temp;Humidity;BMP_temperature;BMP_pressure;BME280_temperature;BME280_humidity;BME280_pressure;Samples;Min_cycle;Max_cycle;Signal;HPM_P1;HPM_P2
2023/10/04 12:31:53;;;;;;;3.28;1.48;;;;;;;;;;5050005;27;20410;-77
2023/10/04 12:34:38;;;;;;;4.32;1.73;;;;;;;;;;5056904;28;20095;-76
2023/10/04 12:37:28;;;;;;;5.07;2.53;;;;;;;;;;5055117;28;20123;-76
2023/10/04 12:40:18;;;;;;;3.92;1.95;;;;;;;;;;5056416;28;20037;-75
2023/10/04 12:43:07;;;;;;;3.92;1.67;;;;;;;;;;5056834;28;20029;-75
2023/10/04 12:45:53;;;;;;;;;;;;;;;;;;5069536;28;20032;-73
2023/10/04 12:48:39;;;;;;;4.65;1.90;;;;;;;;;;5056412;28;19995;-73
2023/10/04 12:51:26;;;;;;;10.85;2.72;;;;;;;;;;5054389;28;20100;-77
2023/10/04 12:54:11;;;;;;;5.05;2.03;;;;;;;;;;5052337;28;20490;-78
2023/10/04 12:56:56;;;;;;;4.55;1.67;;;;;;;;;;5038135;28;20106;-75
2023/10/04 12:59:42;;;;;;;5.18;2.22;;;;;;;;;;5045351;28;20041;-77
2023/10/04 13:02:28;;;;;;;6.28;1.92;;;;;;;;;;5034724;28;20036;-76
2023/10/04 13:05:18;;;;;;;2.45;1.58;;;;;;;;;;5037958;28;20025;-80
2023/10/04 13:08:04;;;;;;;3.08;1.60;;;;;;;;;;5035888;28;20175;-77
2023/10/04 13:10:49;;;;;;;4.53;1.45;;;;;;;;;;5037051;28;20025;-78
2023/10/04 13:13:34;;;;;;;6.90;2.30;;;;;;;;;;5041333;28;20025;-79
2023/10/04 13:16:21;;;;;;;3.00;1.38;;;;;;;;;;5043108;28;20061;-78
2023/10/04 13:19:06;;;;;;;3.15;1.42;;;;;;;;;;5043813;28;20036;-79
2023/10/04 13:21:54;;;;;;;4.95;1.92;;;;;;;;;;5052489;28;20098;-76
2023/10/04 13:24:39;;;;;;;3.40;1.90;;;;;;;;;;5041393;28;20029;-75
2023/10/04 13:27:24;;;;;;;6.47;2.00;;;;;;;;;;5057370;28;20067;-79
2023/10/04 13:30:09;;;;;;;4.47;1.52;;;;;;;;;;5034977;28;20427;-76
2023/10/04 13:32:56;;;;;;;3.88;1.48;;;;;;;;;;5040314;28;20033;-76
2023/10/04 13:35:41;;;;;;;5.72;2.05;;;;;;;;;;5040974;28;20035;-76
2023/10/04 13:38:28;;;;;;;5.30;1.58;;;;;;;;;;5047243;28;20028;-76
2023/10/04 13:41:13;;;;;;;2.47;1.40;;;;;;;;;;5047997;28;20026;-77
2023/10/04 13:43:59;;;;;;;4.55;1.40;;;;;;;;;;5028457;28;20090;-77
2023/10/04 13:46:48;;;;;;;3.28;1.60;;;;;;;;;;5032150;28;20096;-77
2023/10/04 13:49:35;;;;;;;3.17;1.58;;;;;;;;;;5047235;28;20483;-79
2023/10/04 13:52:20;;;;;;;3.35;1.52;;;;;;;;;;5021663;28;20329;-79
2023/10/04 13:55:12;;;;;;;3.95;2.03;;;;;;;;;;5030229;28;20547;-79
2023/10/04 13:57:59;;;;;;;5.95;1.85;;;;;;;;;;5023212;28;20028;-79
2023/10/04 14:00:45;;;;;;;3.30;1.52;;;;;;;;;;5024385;28;20061;-79
2023/10/04 14:03:33;;;;;;;7.22;1.70;;;;;;;;;;5032079;28;20129;-79
2023/10/04 14:06:19;;;;;;;3.53;1.50;;;;;;;;;;5044490;28;20399;-78
2023/10/04 14:09:11;;;;;;;4.15;1.75;;;;;;;;;;5039101;28;20112;-78
2023/10/04 14:11:56;;;;;;;2.95;1.40;;;;;;;;;;5029841;28;20097;-78
2023/10/04 14:14:42;;;;;;;2.75;1.35;;;;;;;;;;5029362;28;20077;-79
2023/10/04 14:17:27;;;;;;;3.30;1.60;;;;;;;;;;5029984;28;20033;-76
2023/10/04 14:20:14;;;;;;;4.78;1.55;;;;;;;;;;5025481;28;20030;-75
2023/10/04 14:23:04;;;;;;;4.50;1.45;;;;;;;;;;5020704;28;20357;-77
2023/10/04 14:25:50;;;;;;;3.13;1.52;;;;;;;;;;5031682;28;20053;-78
2023/10/04 14:28:35;;;;;;;3.95;1.73;;;;;;;;;;5045775;28;20087;-77
2023/10/04 14:31:22;;;;;;;3.45;1.60;;;;;;;;;;5030283;28;20049;-77
2023/10/04 14:34:07;;;;;;;4.47;1.83;;;;;;;;;;5028989;28;20467;-77
2023/10/04 14:36:53;;;;;;;5.78;1.45;;;;;;;;;;5025245;28;20631;-77
2023/10/04 14:39:39;;;;;;;3.55;1.77;;;;;;;;;;5044245;28;20022;-77
2023/10/04 14:42:25;;;;;;;4.10;1.85;;;;;;;;;;5033505;28;20045;-77
2023/10/04 14:45:10;;;;;;;7.10;1.77;;;;;;;;;;5038342;28;20124;-77
2023/10/04 14:47:55;;;;;;;4.00;2.03;;;;;;;;;;5032500;28;20020;-77
2023/10/04 14:50:40;;;;;;;2.50;1.67;;;;;;;;;;5026803;28;20025;-77
2023/10/04 14:53:26;;;;;;;3.95;1.45;;;;;;;;;;5030725;28;20075;-77
2023/10/04 14:56:11;;;;;;;5.38;1.50;;;;;;;;;;5037141;28;20025;-77
2023/10/04 14:58:56;;;;;;;4.00;1.58;;;;;;;;;;5030795;28;20014;-80
2023/10/04 15:01:42;;;;;;;4.47;1.45;;;;;;;;;;5037496;28;20033;-77
2023/10/04 15:04:28;;;;;;;2.78;1.60;;;;;;;;;;5031079;28;20017;-77
2023/10/04 15:07:13;;;;;;;3.30;1.60;;;;;;;;;;5031657;28;20037;-77
2023/10/04 15:09:58;;;;;;;8.00;1.90;;;;;;;;;;5033743;28;20024;-78
2023/10/04 15:12:45;;;;;;;4.85;2.50;;;;;;;;;;5027746;28;20101;-78
2023/10/04 15:15:33;;;;;;;7.28;1.58;;;;;;;;;;5035962;28;20100;-77
2023/10/04 15:18:18;;;;;;;4.07;1.85;;;;;;;;;;5030462;28;20021;-77
2023/10/04 15:21:05;;;;;;;5.60;2.10;;;;;;;;;;5040335;28;20029;-77
2023/10/04 15:23:51;;;;;;;4.15;1.77;;;;;;;;;;5049306;28;20032;-77
2023/10/04 15:26:36;;;;;;;6.18;1.85;;;;;;;;;;5023237;28;20040;-77
2023/10/04 15:29:23;;;;;;;4.50;1.88;;;;;;;;;;5031754;28;20044;-77
2023/10/04 15:32:08;;;;;;;5.32;1.52;;;;;;;;;;5030507;28;20439;-77
2023/10/04 15:34:55;;;;;;;4.10;1.67;;;;;;;;;;5029232;28;20035;-77
2023/10/04 15:37:41;;;;;;;4.70;1.40;;;;;;;;;;5030427;28;20068;-77
2023/10/04 15:40:30;;;;;;;3.45;1.60;;;;;;;;;;5035173;28;20029;-76
2023/10/04 15:43:17;;;;;;;5.50;1.77;;;;;;;;;;5030145;28;20526;-76
2023/10/04 15:46:03;;;;;;;3.83;1.70;;;;;;;;;;5025996;28;20036;-76
2023/10/04 15:48:48;;;;;;;3.85;1.80;;;;;;;;;;5023049;28;20475;-77
2023/10/04 15:51:35;;;;;;;6.25;1.70;;;;;;;;;;5032967;28;20037;-77
2023/10/04 15:54:20;;;;;;;4.65;2.03;;;;;;;;;;5028574;28;20029;-76
2023/10/04 15:57:06;;;;;;;5.35;1.92;;;;;;;;;;5025882;28;20049;-76
2023/10/04 15:59:51;;;;;;;6.72;2.47;;;;;;;;;;5032699;28;20029;-76
2023/10/04 16:02:40;;;;;;;4.18;2.05;;;;;;;;;;5021230;28;20094;-77
2023/10/04 16:05:25;;;;;;;3.05;1.60;;;;;;;;;;5032185;28;20116;-77
2023/10/04 16:08:10;;;;;;;4.20;1.65;;;;;;;;;;5025597;28;20040;-78
2023/10/04 16:10:56;;;;;;;6.82;2.72;;;;;;;;;;5028634;28;20098;-77
2023/10/04 16:13:41;;;;;;;5.57;2.28;;;;;;;;;;5026371;28;20118;-78
2023/10/04 16:16:26;;;;;;;7.00;1.80;;;;;;;;;;5019819;28;20121;-76
2023/10/04 16:19:11;;;;;;;5.70;2.20;;;;;;;;;;5024223;28;20486;-77
2023/10/04 16:21:57;;;;;;;5.00;1.67;;;;;;;;;;5024933;28;20141;-75
2023/10/04 16:24:42;;;;;;;6.85;2.15;;;;;;;;;;5023926;28;20036;-77
2023/10/04 16:27:27;;;;;;;4.05;1.95;;;;;;;;;;5018626;28;20112;-78
2023/10/04 16:30:16;;;;;;;7.97;2.30;;;;;;;;;;5025112;28;20125;-78
2023/10/04 16:33:01;;;;;;;2.67;1.60;;;;;;;;;;5026368;28;20033;-79
2023/10/04 16:35:46;;;;;;;5.53;2.15;;;;;;;;;;5023725;28;20467;-77
2023/10/04 16:38:31;;;;;;;7.18;2.00;;;;;;;;;;5027712;28;20029;-78
2023/10/04 16:41:22;;;;;;;5.97;2.25;;;;;;;;;;5026546;28;20117;-78
2023/10/04 16:44:08;;;;;;;5.82;3.22;;;;;;;;;;5028681;28;20471;-79
2023/10/04 16:46:54;;;;;;;7.10;2.78;;;;;;;;;;5026467;28;20107;-79
2023/10/04 16:49:39;;;;;;;5.82;2.35;;;;;;;;;;5025258;28;20303;-80
2023/10/04 16:52:24;;;;;;;6.47;2.45;;;;;;;;;;5024678;28;20032;-79
2023/10/04 16:55:10;;;;;;;5.30;1.90;;;;;;;;;;5023786;28;20402;-78
2023/10/04 16:57:56;;;;;;;5.90;2.25;;;;;;;;;;5024828;28;20471;-81
2023/10/04 17:00:41;;;;;;;5.88;2.42;;;;;;;;;;5018011;28;20117;-79
2023/10/04 17:03:27;;;;;;;7.32;2.95;;;;;;;;;;5024938;28;20476;-77
2023/10/04 17:06:12;;;;;;;4.20;2.40;;;;;;;;;;5020062;28;20021;-77
2023/10/04 17:08:58;;;;;;;6.85;2.60;;;;;;;;;;5030572;28;20564;-77
2023/10/04 17:11:43;;;;;;;7.07;2.55;;;;;;;;;;4985041;28;20033;-76
2023/10/04 17:14:28;;;;;;;5.93;2.65;;;;;;;;;;4990428;28;20112;-77
2023/10/04 17:17:14;;;;;;;3.80;1.85;;;;;;;;;;4995908;28;20036;-77
2023/10/04 17:19:59;;;;;;;6.93;2.60;;;;;;;;;;4997592;28;21443;-76
2023/10/04 17:22:44;;;;;;;6.63;2.58;;;;;;;;;;4993804;28;21130;-76
2023/10/04 17:25:29;;;;;;;4.15;1.80;;;;;;;;;;4985475;28;20068;-76
2023/10/04 17:28:16;;;;;;;5.47;1.75;;;;;;;;;;4995318;28;20039;-78
2023/10/04 17:31:01;;;;;;;6.97;1.80;;;;;;;;;;4991387;28;20146;-79
2023/10/04 17:33:50;;;;;;;5.65;1.80;;;;;;;;;;4992724;28;20028;-80
2023/10/04 17:36:35;;;;;;;6.35;1.83;;;;;;;;;;5032731;28;20017;-80
2023/10/04 17:39:20;;;;;;;9.20;1.95;;;;;;;;;;5029584;28;20034;-78
2023/10/04 17:42:05;;;;;;;6.57;2.50;;;;;;;;;;5031117;28;20104;-79
2023/10/04 17:44:51;;;;;;;5.38;2.10;;;;;;;;;;5031262;28;20109;-79
2023/10/04 17:47:37;;;;;;;6.25;1.90;;;;;;;;;;5030861;28;20036;-79
2023/10/04 17:50:22;;;;;;;4.65;1.92;;;;;;;;;;5029266;28;20025;-78
2023/10/04 17:53:07;;;;;;;4.20;2.20;;;;;;;;;;5028590;28;20036;-79
2023/10/04 17:55:53;;;;;;;4.65;2.30;;;;;;;;;;5036787;28;20025;-79
2023/10/04 17:58:38;;;;;;;4.45;1.88;;;;;;;;;;5032199;28;20479;-79
2023/10/04 18:01:23;;;;;;;5.78;2.10;;;;;;;;;;5022099;28;20120;-79
2023/10/04 18:04:12;;;;;;;4.60;2.53;;;;;;;;;;5032519;28;20254;-79
2023/10/04 18:07:00;;;;;;;4.63;2.17;;;;;;;;;;5031827;28;20037;-79
2023/10/04 18:09:46;;;;;;;7.28;2.42;;;;;;;;;;5029506;28;20037;-79
2023/10/04 18:12:32;;;;;;;6.63;2.78;;;;;;;;;;5032935;28;20021;-78
2023/10/04 18:15:18;;;;;;;7.25;2.25;;;;;;;;;;5032239;28;20029;-79
2023/10/04 18:18:04;;;;;;;8.88;2.00;;;;;;;;;;5027260;28;20021;-78
2023/10/04 18:20:55;;;;;;;5.65;2.42;;;;;;;;;;5027999;28;20494;-78
2023/10/04 18:23:42;;;;;;;6.03;2.20;;;;;;;;;;5028062;28;20029;-78
2023/10/04 18:26:28;;;;;;;4.53;2.45;;;;;;;;;;5028738;28;20108;-78
2023/10/04 18:29:13;;;;;;;7.90;2.65;;;;;;;;;;5024772;28;20025;-78
2023/10/04 18:31:59;;;;;;;6.22;2.60;;;;;;;;;;5030875;28;20052;-78
2023/10/04 18:34:45;;;;;;;3.55;2.00;;;;;;;;;;5029048;28;20029;-78
2023/10/04 18:37:31;;;;;;;4.40;1.95;;;;;;;;;;5025968;28;20037;-77
2023/10/04 18:40:16;;;;;;;10.05;3.00;;;;;;;;;;5031479;28;20028;-76
2023/10/04 18:43:02;;;;;;;5.18;2.67;;;;;;;;;;5025357;28;20030;-77
2023/10/04 18:45:47;;;;;;;8.23;2.83;;;;;;;;;;5022556;28;20380;-78
2023/10/04 18:48:32;;;;;;;4.80;2.80;;;;;;;;;;5026556;28;20119;-78
2023/10/04 18:51:17;;;;;;;7.38;2.38;;;;;;;;;;5030585;28;20387;-77
2023/10/04 18:54:04;;;;;;;4.90;2.05;;;;;;;;;;5030714;28;20063;-77
2023/10/04 18:56:50;;;;;;;5.32;2.08;;;;;;;;;;5029425;28;20025;-77
2023/10/04 18:59:35;;;;;;;6.03;2.25;;;;;;;;;;5028351;28;20029;-78
2023/10/04 19:02:21;;;;;;;5.80;2.13;;;;;;;;;;5024612;28;20034;-78
2023/10/04 19:05:08;;;;;;;8.23;2.63;;;;;;;;;;5024712;28;20024;-77
2023/10/04 19:07:53;;;;;;;9.48;2.85;;;;;;;;;;5017195;28;20017;-77
2023/10/04 19:10:39;;;;;;;6.70;2.22;;;;;;;;;;5024623;28;20051;-77
2023/10/04 19:13:28;;;;;;;7.20;3.00;;;;;;;;;;5027399;28;20026;-77
2023/10/04 19:16:14;;;;;;;6.15;2.60;;;;;;;;;;5036757;28;20071;-77
2023/10/04 19:18:59;;;;;;;8.80;2.45;;;;;;;;;;5034065;28;20044;-78
2023/10/04 19:21:45;;;;;;;5.88;2.42;;;;;;;;;;5028144;28;20099;-77
2023/10/04 19:24:30;;;;;;;5.85;3.40;;;;;;;;;;5026291;28;20039;-77
2023/10/04 19:27:16;;;;;;;5.28;2.42;;;;;;;;;;5023934;28;20022;-77
2023/10/04 19:30:01;;;;;;;7.72;2.47;;;;;;;;;;5025580;28;20514;-76
2023/10/04 19:32:48;;;;;;;4.47;2.38;;;;;;;;;;5021279;28;20029;-76
2023/10/04 19:35:33;;;;;;;7.22;2.40;;;;;;;;;;5027474;28;20021;-77
2023/10/04 19:38:18;;;;;;;5.88;2.58;;;;;;;;;;5025830;28;20049;-75
2023/10/04 19:41:03;;;;;;;5.10;1.88;;;;;;;;;;5027378;28;20087;-77
2023/10/04 19:43:49;;;;;;;4.20;2.10;;;;;;;;;;5020904;28;20026;-77
2023/10/04 19:46:34;;;;;;;7.35;2.10;;;;;;;;;;5026552;28;20056;-75
2023/10/04 19:49:19;;;;;;;5.28;2.38;;;;;;;;;;5023177;28;20039;-77
2023/10/04 19:52:04;;;;;;;5.45;2.10;;;;;;;;;;5023874;28;20071;-75
2023/10/04 19:54:50;;;;;;;6.80;3.10;;;;;;;;;;5030624;28;20030;-75
2023/10/04 19:57:37;;;;;;;6.47;2.72;;;;;;;;;;5029498;28;20022;-78
2023/10/04 20:00:25;;;;;;;8.65;3.25;;;;;;;;;;5038667;28;20048;-77
2023/10/04 20:03:13;;;;;;;5.68;2.17;;;;;;;;;;5022871;28;20029;-76
2023/10/04 20:06:01;;;;;;;8.20;2.60;;;;;;;;;;5034283;28;20071;-78
2023/10/04 20:08:47;;;;;;;5.00;2.28;;;;;;;;;;5026863;28;20479;-77
2023/10/04 20:11:34;;;;;;;6.22;2.42;;;;;;;;;;5030548;28;20030;-77
2023/10/04 20:14:19;;;;;;;6.68;2.60;;;;;;;;;;5025182;28;20448;-77
2023/10/04 20:17:06;;;;;;;6.43;2.47;;;;;;;;;;5029584;28;20060;-76
2023/10/04 20:19:52;;;;;;;6.53;3.22;;;;;;;;;;5034592;28;20021;-76
2023/10/04 20:22:37;;;;;;;5.68;2.97;;;;;;;;;;5035661;28;20107;-77
2023/10/04 20:25:22;;;;;;;5.38;2.80;;;;;;;;;;5022798;28;20028;-75
2023/10/04 20:28:08;;;;;;;14.82;2.95;;;;;;;;;;5033796;28;20028;-76
2023/10/04 20:30:53;;;;;;;7.80;2.83;;;;;;;;;;5029414;28;20037;-76
2023/10/04 20:33:39;;;;;;;8.48;2.65;;;;;;;;;;5028339;28;20613;-77
2023/10/04 20:36:24;;;;;;;7.15;2.78;;;;;;;;;;5029110;28;20103;-76
2023/10/04 20:39:10;;;;;;;15.75;3.35;;;;;;;;;;5033215;28;20025;-76
2023/10/04 20:41:58;;;;;;;6.53;2.38;;;;;;;;;;5025239;28;20052;-76
2023/10/04 20:44:43;;;;;;;8.15;2.47;;;;;;;;;;5029606;28;20099;-77
2023/10/04 20:47:29;;;;;;;4.38;2.47;;;;;;;;;;5030861;28;20079;-77
2023/10/04 20:50:15;;;;;;;5.28;2.33;;;;;;;;;;5023975;28;20559;-76
2023/10/04 20:53:02;;;;;;;6.15;2.50;;;;;;;;;;5029597;28;20446;-76
2023/10/04 20:55:47;;;;;;;5.60;2.53;;;;;;;;;;5029554;28;20383;-76
2023/10/04 20:58:32;;;;;;;9.10;2.70;;;;;;;;;;5033757;28;20013;-77
2023/10/04 21:01:18;;;;;;;5.57;2.00;;;;;;;;;;5026291;28;20025;-77
2023/10/04 21:04:03;;;;;;;4.07;2.20;;;;;;;;;;5027726;28;20025;-77
2023/10/04 21:06:49;;;;;;;7.55;2.60;;;;;;;;;;5026167;28;20120;-77
2023/10/04 21:09:34;;;;;;;7.45;2.75;;;;;;;;;;5022622;28;20017;-76
2023/10/04 21:12:20;;;;;;;6.43;3.10;;;;;;;;;;5027929;28;20418;-76
2023/10/04 21:15:05;;;;;;;7.95;3.80;;;;;;;;;;5024441;28;20503;-77
2023/10/04 21:17:51;;;;;;;7.95;2.90;;;;;;;;;;5033152;28;20529;-76
2023/10/04 21:20:37;;;;;;;5.85;2.90;;;;;;;;;;5026626;28;20380;-76
2023/10/04 21:23:22;;;;;;;7.15;2.55;;;;;;;;;;5025491;28;20025;-77
2023/10/04 21:26:08;;;;;;;4.93;2.33;;;;;;;;;;5027297;28;20723;-76
2023/10/04 21:28:54;;;;;;;4.18;1.85;;;;;;;;;;5030859;28;20029;-76
2023/10/04 21:31:39;;;;;;;6.60;3.00;;;;;;;;;;5030778;28;20350;-77
2023/10/04 21:34:24;;;;;;;9.57;2.90;;;;;;;;;;5030437;28;20021;-77
2023/10/04 21:37:10;;;;;;;4.15;2.20;;;;;;;;;;5026484;28;20112;-76
2023/10/04 21:39:55;;;;;;;8.02;2.38;;;;;;;;;;5030379;28;20117;-76
2023/10/04 21:42:45;;;;;;;6.50;2.15;;;;;;;;;;5023324;28;20751;-77
2023/10/04 21:45:30;;;;;;;;;;;;;;;;;;5030603;28;20037;-76
2023/10/04 21:48:28;;;;;;;5.40;2.47;;;;;;;;;;5029118;28;19909;-77
2023/10/04 21:51:25;;;;;;;5.38;2.40;;;;;;;;;;5042736;28;20053;-77
2023/10/04 21:54:13;;;;;;;;;;;;;;;;;;5044203;28;20060;-77
2023/10/04 21:57:01;;;;;;;7.05;2.35;;;;;;;;;;5026533;28;19905;-77
2023/10/04 21:59:47;;;;;;;5.82;2.20;;;;;;;;;;5028115;28;20128;-77
2023/10/04 22:02:32;;;;;;;4.45;2.38;;;;;;;;;;5043056;28;20064;-77
2023/10/04 22:05:18;;;;;;;7.70;3.20;;;;;;;;;;5029727;28;20033;-77
2023/10/04 22:08:12;;;;;;;5.93;2.80;;;;;;;;;;5029811;28;20022;-77
2023/10/04 22:10:58;;;;;;;7.30;2.95;;;;;;;;;;5029453;28;20035;-77
2023/10/04 22:13:47;;;;;;;11.27;2.58;;;;;;;;;;5018755;28;20056;-76
2023/10/04 22:16:32;;;;;;;6.35;2.20;;;;;;;;;;5029844;28;20025;-77
2023/10/04 22:19:18;;;;;;;7.88;2.55;;;;;;;;;;5022529;28;20029;-77
2023/10/04 22:22:03;;;;;;;4.28;2.25;;;;;;;;;;4997549;28;20029;-77
2023/10/04 22:24:52;;;;;;;5.00;2.22;;;;;;;;;;5023882;28;20357;-78
2023/10/04 22:27:38;;;;;;;9.32;2.60;;;;;;;;;;5043755;28;20049;-78
2023/10/04 22:30:23;;;;;;;5.50;2.25;;;;;;;;;;5044870;28;20048;-78
2023/10/04 22:33:12;;;;;;;3.42;2.25;;;;;;;;;;5029946;28;20040;-77
2023/10/04 22:35:58;;;;;;;4.88;2.60;;;;;;;;;;5019901;28;20032;-77
2023/10/04 22:38:43;;;;;;;4.47;2.45;;;;;;;;;;5031216;28;20380;-75
2023/10/04 22:41:28;;;;;;;7.07;2.40;;;;;;;;;;5043163;28;20509;-76
2023/10/04 22:44:17;;;;;;;9.60;2.85;;;;;;;;;;5020312;28;20044;-76
2023/10/04 22:47:02;;;;;;;8.93;2.47;;;;;;;;;;5030370;28;20029;-77
2023/10/04 22:49:48;;;;;;;4.95;1.85;;;;;;;;;;5031719;28;20482;-77
2023/10/04 22:52:34;;;;;;;6.30;2.53;;;;;;;;;;5020737;28;20040;-77
2023/10/04 22:55:20;;;;;;;3.45;2.05;;;;;;;;;;5024764;28;20027;-77
2023/10/04 22:58:06;;;;;;;4.90;2.42;;;;;;;;;;5029658;28;20024;-77
2023/10/04 23:00:51;;;;;;;4.38;2.00;;;;;;;;;;5014622;28;20551;-77
2023/10/04 23:03:43;;;;;;;4.57;2.20;;;;;;;;;;5023408;28;20045;-77
2023/10/04 23:06:36;;;;;;;4.72;2.25;;;;;;;;;;5028685;28;20024;-77
2023/10/04 23:09:24;;;;;;;6.10;2.20;;;;;;;;;;5026387;28;20105;-77
2023/10/04 23:12:10;;;;;;;4.55;2.72;;;;;;;;;;5031869;28;20034;-76
2023/10/04 23:14:57;;;;;;;5.13;2.20;;;;;;;;;;5027477;28;20018;-77
2023/10/04 23:17:43;;;;;;;10.00;2.20;;;;;;;;;;5028944;28;20414;-77
2023/10/04 23:20:31;;;;;;;3.47;1.95;;;;;;;;;;5022918;28;20029;-77
2023/10/04 23:23:16;;;;;;;6.22;2.70;;;;;;;;;;5026685;28;20017;-76
2023/10/04 23:26:03;;;;;;;4.80;2.10;;;;;;;;;;5027701;28;20040;-76
2023/10/04 23:28:50;;;;;;;3.42;2.30;;;;;;;;;;5014903;28;20029;-77
2023/10/04 23:31:39;;;;;;;5.13;2.08;;;;;;;;;;5026989;28;20057;-77
2023/10/04 23:34:26;;;;;;;4.53;2.28;;;;;;;;;;5018929;28;20025;-77
2023/10/04 23:37:11;;;;;;;5.20;2.22;;;;;;;;;;5037949;28;20021;-77
2023/10/04 23:39:56;;;;;;;5.22;2.42;;;;;;;;;;5027330;28;20026;-78
2023/10/04 23:42:43;;;;;;;5.22;2.38;;;;;;;;;;5014561;28;20144;-77
2023/10/04 23:45:28;;;;;;;7.00;2.20;;;;;;;;;;5025580;28;20021;-78
2023/10/04 23:48:25;;;;;;;7.50;2.83;;;;;;;;;;5028482;28;20057;-78
2023/10/04 23:51:11;;;;;;;7.20;2.72;;;;;;;;;;5022423;28;20026;-77
2023/10/04 23:54:12;;;;;;;4.53;1.80;;;;;;;;;;5028152;28;20017;-78
2023/10/04 23:57:01;;;;;;;3.38;2.03;;;;;;;;;;5038054;28;20029;-76
2023/10/04 23:59:50;;;;;;;4.55;2.05;;;;;;;;;;5025556;28;20431;-77
